Aérodrome :
LOGIN :

S'inscrire | Disclaimer

   EN    FR    IT 

 










Légende :    VFR   VFR Marginal   IFR   IFR Intensif   IFR Très Intensif
Visi : 
Plafond : 
>= 8 km
>= 3000ft
5 à 8 km
1000 à 3000 ft
1500m à 5 km
500 à 1000 ft
800 à 1500m
200 à 500 ft
< 800m
< 200 ft
Symboles :   Orages  Brouillard  Fortes neiges  Fortes précipitations  Vent > 20 kt
SIGMETs :   Divers  Orages  Givrage  Turbulence  Onde Orograph.  Cendres Volcan.







- Altitude de l'aérodrome : 48 ft
- Code IATA : PSR


LIBP - Abruzzo Pescara

DERNIER METAR :
  • 230016Z AUTO 09003KT 5000 BR OVC011/// 14/13 Q1007

METARs EXPIRÉS :
  • 222350Z AUTO VRB01KT //// OVC007/// 14/13 Q1007
  • 222250Z AUTO VRB02KT //// OVC005/// 14/13 Q1008
  • 222235Z AUTO VRB02KT //// OVC005/// 14/13 Q1008
  • 222155Z AUTO VRB02KT ///// OVC004/// 14/13 Q1008

TAF TAF LIBP
Valide du 23 à 00h jusqu'au 24 à 00h UTC


222300Z 2300/2324 14007KT 9999 BKN030
BECMG 2308/2310 23014KT
Pas de NOTAMs connus pour ce terrain.
2 SIGMETs publiés pour la FIR Brindisi (LIBB) :
 
Turbulence forte
LIBB SIGMET 5 VALID 230005/230405 LIIB
LIBB BRINDISI FIR SEV TURB FCST S OF LINE N4111 E01443 - N4140 E01817 SFC/FL120 STNR WKN=
Turbulence forte
LIBB SIGMET 4 VALID 222005/230005 LIIB
LIBB BRINDISI FIR SEV TURB FCST WI N4252 E01529 - N4157 E01357 - N4125 E01427 - N4111 E01507 - N3912 E01621 - N4035 E01859 - N4106 E01850 - N4252 E01529 SFC/FL120 STNR NC=



MET'MAP, la Météo Aéronautique d'un coup d'oeil ! - Copyright ORBIFLY Décembre 2007 - Disclaimer

ORBIFLY MET'MAP TEAM :

Programmation & Développement : Alexandra Zaïnal
Conception & Développement : Baudouin d'Aumeries
Co-Programmation & Développement : Marc-Olivier Méhu
Soutien technique & logistique : Manuel Goepfert

Contact : metmap@orbifly.com




SOURCES & CREDITS :

   NOAA